Terminal Aerodrome Forecast
Issued by NWS Duluth, MN

Home | Current Version | Previous Version | Text Only | Print | Product List | Glossary On
Versions: 1 2 3 4 5 6 7 8 9 10 11 12 13 14 15 16 17 18 19 20 21 22 23 24 25
000
FTUS43 KDLH 280100 AAB
TAFINL
TAF AMD
KINL 280117Z 2801/2824 15006KT 2SM -SN OVC019
      TEMPO 2801/2803 1SM -SN OVC010
     FM280330 15006KT P6SM -SN SCT025 OVC035
      TEMPO 2804/2806 BKN015 OVC050
     FM280600 15004KT P6SM SCT007 BKN015
     FM281000 15003KT 6SM BR OVC009
     FM281500 12004KT 5SM BR OVC005=

USA.gov is the U.S. government's official web portal to all federal, state and local government web resources and services.